Metz-Nancy-Lorraine Airport

Airport
ICAO code: 
LFJL
IATA Code: 
ETZ
Summary
ICAO Region: 
EUR
Territory: 
Location: 
, Lorraine
Serving: 
Metz
Elevation: 
870 ft
Coordinates: 
Aerial View: 
48° 58' 55.711" N, 6° 15' 4.748" E
Metar
Observation
LFJL 300630Z AUTO 22020KT 6000 -RA BKN007 OVC011 02/01 Q1015 BECMG 24015G25KT
Station
Metz-Nancy-Lorraine
Date/Time
2021-11-30 06:30:00
Wind direction
220°
Wind speed
20 kts
Lowest cloud amount
broken clouds
Temperature
2°C
Dew point
1°C
Humidity
93%
QNH
1015 hPa
Weather condition
n/a

Runways

Designator Length Width Surface Rops
4/22 2500 45 ASP Yes/Yes
Airport map: 
Aerial View: 

SKYbrary Partners:

Safety knowledge contributed by: